Terminal Aerodrome Forecast
Issued by NWS

Home | Current Version | Previous Version | Text Only | Print | Product List | Glossary Off
Versions: 1 2 3 4 5 6 7 8 9 10 11 12 13 14 15 16 17 18 19 20 21 22 23 24 25 26

000
FTUS41 KCLE 251950 AAA
TAFFDY
TAF AMD
KFDY 251950Z 2520/2618 33010G20KT P6SM SCT020 OVC050
      TEMPO 2520/2522 3SM -SHRA OVC020
     FM252200 31008KT P6SM VCSH OVC020
     FM260200 28008KT P6SM OVC008
     FM261400 28008KT P6SM OVC015
     FM261700 25008KT P6SM SCT015 BKN120=

USA.gov is the U.S. government's official web portal to all federal, state and local government web resources and services.